sensor_id;sensor_type;location;lat;lon;timestamp;temperature;humidity
2825;DHT22;1420;51.324;12.344;2022-12-01T00:02:00;2.10;99.90
2825;DHT22;1420;51.324;12.344;2022-12-01T00:04:27;2.20;99.90
2825;DHT22;1420;51.324;12.344;2022-12-01T00:06:54;2.10;99.90
2825;DHT22;1420;51.324;12.344;2022-12-01T00:09:22;2.10;99.90
2825;DHT22;1420;51.324;12.344;2022-12-01T00:11:55;2.10;99.90
2825;DHT22;1420;51.324;12.344;2022-12-01T00:14:22;2.20;99.90
2825;DHT22;1420;51.324;12.344;2022-12-01T00:16:50;2.10;99.90
2825;DHT22;1420;51.324;12.344;2022-12-01T00:19:17;2.20;99.90
2825;DHT22;1420;51.324;12.344;2022-12-01T00:21:44;2.20;99.90
2825;DHT22;1420;51.324;12.344;2022-12-01T00:24:11;2.10;99.90
2825;DHT22;1420;51.324;12.344;2022-12-01T00:26:38;2.10;99.90
2825;DHT22;1420;51.324;12.344;2022-12-01T00:29:06;2.10;99.90
2825;DHT22;1420;51.324;12.344;2022-12-01T00:31:33;2.00;99.90
2825;DHT22;1420;51.324;12.344;2022-12-01T00:34:11;1.90;99.90
2825;DHT22;1420;51.324;12.344;2022-12-01T00:36:36;1.90;99.90
2825;DHT22;1420;51.324;12.344;2022-12-01T00:39:03;1.90;99.90
2825;DHT22;1420;51.324;12.344;2022-12-01T00:41:30;1.90;99.90
2825;DHT22;1420;51.324;12.344;2022-12-01T00:43:57;1.90;99.90
2825;DHT22;1420;51.324;12.344;2022-12-01T00:46:24;1.90;99.90
2825;DHT22;1420;51.324;12.344;2022-12-01T00:48:52;1.90;99.90
2825;DHT22;1420;51.324;12.344;2022-12-01T00:51:19;1.90;99.90
2825;DHT22;1420;51.324;12.344;2022-12-01T00:53:47;1.90;99.90
2825;DHT22;1420;51.324;12.344;2022-12-01T00:56:15;1.90;99.90
2825;DHT22;1420;51.324;12.344;2022-12-01T00:58:42;1.80;99.90
2825;DHT22;1420;51.324;12.344;2022-12-01T01:01:09;1.70;99.90
2825;DHT22;1420;51.324;12.344;2022-12-01T01:03:36;1.80;99.90
2825;DHT22;1420;51.324;12.344;2022-12-01T01:06:05;1.80;99.90
2825;DHT22;1420;51.324;12.344;2022-12-01T01:08:33;1.90;99.90
2825;DHT22;1420;51.324;12.344;2022-12-01T01:11:01;1.90;99.90
2825;DHT22;1420;51.324;12.344;2022-12-01T01:13:29;1.80;99.90
2825;DHT22;1420;51.324;12.344;2022-12-01T01:16:02;1.90;99.90
2825;DHT22;1420;51.324;12.344;2022-12-01T01:18:29;1.80;99.90
2825;DHT22;1420;51.324;12.344;2022-12-01T01:20:58;1.80;99.90
2825;DHT22;1420;51.324;12.344;2022-12-01T01:23:24;1.80;99.90
2825;DHT22;1420;51.324;12.344;2022-12-01T01:25:51;1.80;99.90
2825;DHT22;1420;51.324;12.344;2022-12-01T01:28:19;1.70;99.90
2825;DHT22;1420;51.324;12.344;2022-12-01T01:30:47;1.70;99.90
2825;DHT22;1420;51.324;12.344;2022-12-01T01:33:15;1.60;99.90
2825;DHT22;1420;51.324;12.344;2022-12-01T01:35:43;1.70;99.90
2825;DHT22;1420;51.324;12.344;2022-12-01T01:38:10;1.70;99.90
2825;DHT22;1420;51.324;12.344;2022-12-01T01:40:42;1.60;99.90
2825;DHT22;1420;51.324;12.344;2022-12-01T01:43:13;1.60;99.90
2825;DHT22;1420;51.324;12.344;2022-12-01T01:45:39;1.60;99.90
2825;DHT22;1420;51.324;12.344;2022-12-01T01:48:07;1.60;99.90
2825;DHT22;1420;51.324;12.344;2022-12-01T01:50:34;1.60;99.90
2825;DHT22;1420;51.324;12.344;2022-12-01T01:53:02;1.60;99.90
2825;DHT22;1420;51.324;12.344;2022-12-01T01:55:28;1.60;99.90
2825;DHT22;1420;51.324;12.344;2022-12-01T01:57:56;1.50;99.90
2825;DHT22;1420;51.324;12.344;2022-12-01T02:00:23;1.60;99.90
2825;DHT22;1420;51.324;12.344;2022-12-01T02:02:50;1.60;99.90
2825;DHT22;1420;51.324;12.344;2022-12-01T02:05:24;1.50;99.90
2825;DHT22;1420;51.324;12.344;2022-12-01T02:07:51;1.40;99.90
2825;DHT22;1420;51.324;12.344;2022-12-01T02:10:17;1.50;99.90
2825;DHT22;1420;51.324;12.344;2022-12-01T02:13:05;1.50;99.90
2825;DHT22;1420;51.324;12.344;2022-12-01T02:15:40;1.50;99.90
2825;DHT22;1420;51.324;12.344;2022-12-01T02:21:28;1.40;99.90
2825;DHT22;1420;51.324;12.344;2022-12-01T02:24:05;1.50;99.90
2825;DHT22;1420;51.324;12.344;2022-12-01T02:26:38;1.50;99.90
2825;DHT22;1420;51.324;12.344;2022-12-01T02:29:17;1.50;99.90
2825;DHT22;1420;51.324;12.344;2022-12-01T02:31:42;1.40;99.90
2825;DHT22;1420;51.324;12.344;2022-12-01T02:34:15;1.40;99.90
2825;DHT22;1420;51.324;12.344;2022-12-01T02:36:46;1.40;99.90
2825;DHT22;1420;51.324;12.344;2022-12-01T02:39:17;1.40;99.90
2825;DHT22;1420;51.324;12.344;2022-12-01T02:41:49;1.50;99.90
2825;DHT22;1420;51.324;12.344;2022-12-01T02:44:20;1.40;99.90
2825;DHT22;1420;51.324;12.344;2022-12-01T02:46:49;1.50;99.90
2825;DHT22;1420;51.324;12.344;2022-12-01T02:49:17;1.50;99.90
2825;DHT22;1420;51.324;12.344;2022-12-01T02:51:43;1.50;99.90
2825;DHT22;1420;51.324;12.344;2022-12-01T02:54:12;1.60;99.90
2825;DHT22;1420;51.324;12.344;2022-12-01T02:56:38;1.50;99.90
2825;DHT22;1420;51.324;12.344;2022-12-01T02:59:09;1.40;99.90
2825;DHT22;1420;51.324;12.344;2022-12-01T03:01:44;1.40;99.90
2825;DHT22;1420;51.324;12.344;2022-12-01T03:07:21;1.40;99.90
2825;DHT22;1420;51.324;12.344;2022-12-01T03:12:49;1.40;99.90
2825;DHT22;1420;51.324;12.344;2022-12-01T03:15:29;1.40;99.90
2825;DHT22;1420;51.324;12.344;2022-12-01T03:17:57;1.30;99.90
2825;DHT22;1420;51.324;12.344;2022-12-01T03:20:23;1.30;99.90
2825;DHT22;1420;51.324;12.344;2022-12-01T03:22:52;1.30;99.90
2825;DHT22;1420;51.324;12.344;2022-12-01T03:25:19;1.30;99.90
2825;DHT22;1420;51.324;12.344;2022-12-01T03:27:46;1.20;99.90
2825;DHT22;1420;51.324;12.344;2022-12-01T03:30:14;1.40;99.90
2825;DHT22;1420;51.324;12.344;2022-12-01T03:32:47;1.30;99.90
2825;DHT22;1420;51.324;12.344;2022-12-01T03:35:21;1.30;99.90
2825;DHT22;1420;51.324;12.344;2022-12-01T03:37:53;1.20;99.90
2825;DHT22;1420;51.324;12.344;2022-12-01T03:40:21;1.20;99.90
2825;DHT22;1420;51.324;12.344;2022-12-01T03:42:52;1.30;99.90
2825;DHT22;1420;51.324;12.344;2022-12-01T03:45:18;1.10;99.90
2825;DHT22;1420;51.324;12.344;2022-12-01T03:47:45;1.00;99.90
2825;DHT22;1420;51.324;12.344;2022-12-01T03:50:13;1.00;99.90
2825;DHT22;1420;51.324;12.344;2022-12-01T03:52:51;1.00;99.90
2825;DHT22;1420;51.324;12.344;2022-12-01T03:55:26;0.90;99.90
2825;DHT22;1420;51.324;12.344;2022-12-01T03:58:00;0.80;99.90
2825;DHT22;1420;51.324;12.344;2022-12-01T04:00:24;0.70;99.90
2825;DHT22;1420;51.324;12.344;2022-12-01T04:02:55;0.80;99.90
2825;DHT22;1420;51.324;12.344;2022-12-01T04:05:21;0.70;99.90
2825;DHT22;1420;51.324;12.344;2022-12-01T04:07:48;0.80;99.90
2825;DHT22;1420;51.324;12.344;2022-12-01T04:10:16;0.70;99.90
2825;DHT22;1420;51.324;12.344;2022-12-01T04:12:43;0.70;99.90
2825;DHT22;1420;51.324;12.344;2022-12-01T04:15:11;0.70;99.90
2825;DHT22;1420;51.324;12.344;2022-12-01T04:17:40;0.70;99.90
2825;DHT22;1420;51.324;12.344;2022-12-01T04:20:10;0.60;99.90
2825;DHT22;1420;51.324;12.344;2022-12-01T04:22:37;0.60;99.90
2825;DHT22;1420;51.324;12.344;2022-12-01T04:25:05;0.50;99.90
2825;DHT22;1420;51.324;12.344;2022-12-01T04:27:32;0.50;99.90
2825;DHT22;1420;51.324;12.344;2022-12-01T04:29:59;0.70;99.90
2825;DHT22;1420;51.324;12.344;2022-12-01T04:32:26;0.70;99.90
2825;DHT22;1420;51.324;12.344;2022-12-01T04:34:53;0.60;99.90
2825;DHT22;1420;51.324;12.344;2022-12-01T04:37:21;0.30;99.90
2825;DHT22;1420;51.324;12.344;2022-12-01T04:39:49;0.30;99.90
2825;DHT22;1420;51.324;12.344;2022-12-01T04:42:16;0.30;99.90
2825;DHT22;1420;51.324;12.344;2022-12-01T04:44:44;0.30;99.90
2825;DHT22;1420;51.324;12.344;2022-12-01T04:47:11;0.20;99.90
2825;DHT22;1420;51.324;12.344;2022-12-01T04:49:38;0.10;99.90
2825;DHT22;1420;51.324;12.344;2022-12-01T04:52:05;0.10;99.90
2825;DHT22;1420;51.324;12.344;2022-12-01T04:54:33;0.20;99.90
2825;DHT22;1420;51.324;12.344;2022-12-01T04:57:00;0.10;99.90
2825;DHT22;1420;51.324;12.344;2022-12-01T04:59:28;0.10;99.90
2825;DHT22;1420;51.324;12.344;2022-12-01T05:01:56;0.10;99.90
2825;DHT22;1420;51.324;12.344;2022-12-01T05:04:24;0.00;99.90
2825;DHT22;1420;51.324;12.344;2022-12-01T05:06:52;0.00;99.90
2825;DHT22;1420;51.324;12.344;2022-12-01T05:09:19;0.10;99.90
2825;DHT22;1420;51.324;12.344;2022-12-01T05:11:46;0.00;99.90
2825;DHT22;1420;51.324;12.344;2022-12-01T05:14:14;0.00;99.90
2825;DHT22;1420;51.324;12.344;2022-12-01T05:16:42;0.10;99.90
2825;DHT22;1420;51.324;12.344;2022-12-01T05:19:10;0.10;99.90
2825;DHT22;1420;51.324;12.344;2022-12-01T05:21:44;0.00;99.90
2825;DHT22;1420;51.324;12.344;2022-12-01T05:24:11;0.10;99.90
2825;DHT22;1420;51.324;12.344;2022-12-01T05:26:38;0.40;99.90
2825;DHT22;1420;51.324;12.344;2022-12-01T05:29:05;0.90;99.90
2825;DHT22;1420;51.324;12.344;2022-12-01T05:31:32;1.10;99.90
2825;DHT22;1420;51.324;12.344;2022-12-01T05:34:00;1.40;99.90
2825;DHT22;1420;51.324;12.344;2022-12-01T05:36:27;1.20;99.90
2825;DHT22;1420;51.324;12.344;2022-12-01T05:38:54;0.90;99.90
2825;DHT22;1420;51.324;12.344;2022-12-01T05:41:21;1.00;99.90
2825;DHT22;1420;51.324;12.344;2022-12-01T05:43:49;1.20;99.90
2825;DHT22;1420;51.324;12.344;2022-12-01T05:46:16;1.00;99.90
2825;DHT22;1420;51.324;12.344;2022-12-01T05:48:43;1.30;99.90
2825;DHT22;1420;51.324;12.344;2022-12-01T05:51:11;1.30;99.90
2825;DHT22;1420;51.324;12.344;2022-12-01T05:53:38;1.30;99.90
2825;DHT22;1420;51.324;12.344;2022-12-01T05:56:06;1.10;99.90
2825;DHT22;1420;51.324;12.344;2022-12-01T05:58:34;1.30;99.90
2825;DHT22;1420;51.324;12.344;2022-12-01T06:01:02;1.20;99.90
2825;DHT22;1420;51.324;12.344;2022-12-01T06:03:29;1.10;99.90
2825;DHT22;1420;51.324;12.344;2022-12-01T06:05:56;1.30;99.90
2825;DHT22;1420;51.324;12.344;2022-12-01T06:08:24;1.30;99.90
2825;DHT22;1420;51.324;12.344;2022-12-01T06:10:51;1.40;99.90
2825;DHT22;1420;51.324;12.344;2022-12-01T06:13:18;1.40;99.90
2825;DHT22;1420;51.324;12.344;2022-12-01T06:15:54;1.20;99.90
2825;DHT22;1420;51.324;12.344;2022-12-01T06:18:13;1.20;99.90
2825;DHT22;1420;51.324;12.344;2022-12-01T06:20:41;1.20;99.90
2825;DHT22;1420;51.324;12.344;2022-12-01T06:23:09;1.40;99.90
2825;DHT22;1420;51.324;12.344;2022-12-01T06:25:37;1.60;99.90
2825;DHT22;1420;51.324;12.344;2022-12-01T06:28:05;1.50;99.90
2825;DHT22;1420;51.324;12.344;2022-12-01T06:30:33;1.50;99.90
2825;DHT22;1420;51.324;12.344;2022-12-01T06:33:00;1.30;99.90
2825;DHT22;1420;51.324;12.344;2022-12-01T06:35:27;1.30;99.90
2825;DHT22;1420;51.324;12.344;2022-12-01T06:37:54;1.70;99.90
2825;DHT22;1420;51.324;12.344;2022-12-01T06:40:21;1.70;99.90
2825;DHT22;1420;51.324;12.344;2022-12-01T06:42:49;1.50;99.90
2825;DHT22;1420;51.324;12.344;2022-12-01T06:45:16;1.50;99.90
2825;DHT22;1420;51.324;12.344;2022-12-01T06:47:44;1.60;99.90
2825;DHT22;1420;51.324;12.344;2022-12-01T06:50:12;1.80;99.90
2825;DHT22;1420;51.324;12.344;2022-12-01T06:52:39;1.70;99.90
2825;DHT22;1420;51.324;12.344;2022-12-01T06:55:08;1.70;99.90
2825;DHT22;1420;51.324;12.344;2022-12-01T06:57:35;1.60;99.90
2825;DHT22;1420;51.324;12.344;2022-12-01T07:00:03;1.70;99.90
2825;DHT22;1420;51.324;12.344;2022-12-01T07:02:30;1.60;99.90
2825;DHT22;1420;51.324;12.344;2022-12-01T07:04:58;1.10;99.90
2825;DHT22;1420;51.324;12.344;2022-12-01T07:07:25;0.90;99.90
2825;DHT22;1420;51.324;12.344;2022-12-01T07:09:52;0.90;99.90
2825;DHT22;1420;51.324;12.344;2022-12-01T07:12:20;0.70;99.90
2825;DHT22;1420;51.324;12.344;2022-12-01T07:14:48;0.80;99.90
2825;DHT22;1420;51.324;12.344;2022-12-01T07:17:16;0.70;99.90
2825;DHT22;1420;51.324;12.344;2022-12-01T07:19:43;0.60;99.90
2825;DHT22;1420;51.324;12.344;2022-12-01T07:22:10;0.60;99.90
2825;DHT22;1420;51.324;12.344;2022-12-01T07:24:38;0.60;99.90
2825;DHT22;1420;51.324;12.344;2022-12-01T07:27:06;0.40;99.90
2825;DHT22;1420;51.324;12.344;2022-12-01T07:29:34;0.50;99.90
2825;DHT22;1420;51.324;12.344;2022-12-01T07:32:02;0.40;99.90
2825;DHT22;1420;51.324;12.344;2022-12-01T07:34:29;0.50;99.90
2825;DHT22;1420;51.324;12.344;2022-12-01T07:36:57;0.40;99.90
2825;DHT22;1420;51.324;12.344;2022-12-01T07:39:25;0.40;99.90
2825;DHT22;1420;51.324;12.344;2022-12-01T07:41:53;0.30;99.90
2825;DHT22;1420;51.324;12.344;2022-12-01T07:44:20;0.30;99.90
2825;DHT22;1420;51.324;12.344;2022-12-01T07:46:49;0.40;99.90
2825;DHT22;1420;51.324;12.344;2022-12-01T07:49:17;0.50;99.90
2825;DHT22;1420;51.324;12.344;2022-12-01T07:51:45;0.50;99.90
2825;DHT22;1420;51.324;12.344;2022-12-01T07:54:12;0.50;99.90
2825;DHT22;1420;51.324;12.344;2022-12-01T07:56:40;0.50;99.90
2825;DHT22;1420;51.324;12.344;2022-12-01T07:59:07;0.50;99.90
2825;DHT22;1420;51.324;12.344;2022-12-01T08:01:35;0.50;99.90
2825;DHT22;1420;51.324;12.344;2022-12-01T08:04:03;0.40;99.90
2825;DHT22;1420;51.324;12.344;2022-12-01T08:06:30;0.50;99.90
2825;DHT22;1420;51.324;12.344;2022-12-01T08:08:58;0.60;99.90
2825;DHT22;1420;51.324;12.344;2022-12-01T08:11:27;0.70;99.90
2825;DHT22;1420;51.324;12.344;2022-12-01T08:13:54;0.70;99.90
2825;DHT22;1420;51.324;12.344;2022-12-01T08:16:22;0.70;99.90
2825;DHT22;1420;51.324;12.344;2022-12-01T08:18:49;0.70;99.90
2825;DHT22;1420;51.324;12.344;2022-12-01T08:21:18;0.80;99.90
2825;DHT22;1420;51.324;12.344;2022-12-01T08:23:46;0.60;99.90
2825;DHT22;1420;51.324;12.344;2022-12-01T08:26:15;0.60;99.90
2825;DHT22;1420;51.324;12.344;2022-12-01T08:28:42;0.70;99.90
2825;DHT22;1420;51.324;12.344;2022-12-01T08:31:11;0.60;99.90
2825;DHT22;1420;51.324;12.344;2022-12-01T08:33:37;0.50;99.90
2825;DHT22;1420;51.324;12.344;2022-12-01T08:36:05;0.60;99.90
2825;DHT22;1420;51.324;12.344;2022-12-01T08:38:32;0.50;99.90
2825;DHT22;1420;51.324;12.344;2022-12-01T08:41:03;0.50;99.90
2825;DHT22;1420;51.324;12.344;2022-12-01T08:43:29;0.60;99.90
2825;DHT22;1420;51.324;12.344;2022-12-01T08:45:57;0.50;99.90
2825;DHT22;1420;51.324;12.344;2022-12-01T08:48:24;0.40;99.90
2825;DHT22;1420;51.324;12.344;2022-12-01T08:50:52;0.40;99.90
2825;DHT22;1420;51.324;12.344;2022-12-01T08:53:20;0.30;99.90
2825;DHT22;1420;51.324;12.344;2022-12-01T08:55:47;0.40;99.90
2825;DHT22;1420;51.324;12.344;2022-12-01T08:58:14;0.50;99.90
2825;DHT22;1420;51.324;12.344;2022-12-01T09:00:41;0.60;99.90
2825;DHT22;1420;51.324;12.344;2022-12-01T09:03:09;0.60;99.90
2825;DHT22;1420;51.324;12.344;2022-12-01T09:05:37;0.40;99.90
2825;DHT22;1420;51.324;12.344;2022-12-01T09:08:04;0.40;99.90
2825;DHT22;1420;51.324;12.344;2022-12-01T09:10:37;0.50;99.90
2825;DHT22;1420;51.324;12.344;2022-12-01T09:13:04;0.60;99.90
2825;DHT22;1420;51.324;12.344;2022-12-01T09:15:31;0.50;99.90
2825;DHT22;1420;51.324;12.344;2022-12-01T09:17:58;0.60;99.90
2825;DHT22;1420;51.324;12.344;2022-12-01T09:20:26;0.50;99.90
2825;DHT22;1420;51.324;12.344;2022-12-01T09:22:53;0.60;99.90
2825;DHT22;1420;51.324;12.344;2022-12-01T09:25:20;0.60;99.90
2825;DHT22;1420;51.324;12.344;2022-12-01T09:27:47;0.70;99.90
2825;DHT22;1420;51.324;12.344;2022-12-01T09:30:14;0.70;99.90
2825;DHT22;1420;51.324;12.344;2022-12-01T09:32:42;0.70;99.90
2825;DHT22;1420;51.324;12.344;2022-12-01T09:35:09;0.60;99.90
2825;DHT22;1420;51.324;12.344;2022-12-01T09:37:37;0.60;99.90
2825;DHT22;1420;51.324;12.344;2022-12-01T09:40:06;0.70;99.90
2825;DHT22;1420;51.324;12.344;2022-12-01T09:42:33;0.70;99.90
2825;DHT22;1420;51.324;12.344;2022-12-01T09:45:01;0.70;99.90
2825;DHT22;1420;51.324;12.344;2022-12-01T09:47:33;0.80;99.90
2825;DHT22;1420;51.324;12.344;2022-12-01T09:50:03;0.80;99.90
2825;DHT22;1420;51.324;12.344;2022-12-01T09:52:33;0.80;99.90
2825;DHT22;1420;51.324;12.344;2022-12-01T09:54:59;0.70;99.90
2825;DHT22;1420;51.324;12.344;2022-12-01T09:57:28;0.70;99.90
2825;DHT22;1420;51.324;12.344;2022-12-01T09:59:54;0.70;99.90
2825;DHT22;1420;51.324;12.344;2022-12-01T10:02:29;0.80;99.90
2825;DHT22;1420;51.324;12.344;2022-12-01T10:04:55;0.80;99.90
2825;DHT22;1420;51.324;12.344;2022-12-01T10:07:24;0.70;99.90
2825;DHT22;1420;51.324;12.344;2022-12-01T10:09:57;0.70;99.90
2825;DHT22;1420;51.324;12.344;2022-12-01T10:12:25;0.80;99.90
2825;DHT22;1420;51.324;12.344;2022-12-01T10:14:52;0.70;99.90
2825;DHT22;1420;51.324;12.344;2022-12-01T10:17:54;0.70;99.90
2825;DHT22;1420;51.324;12.344;2022-12-01T10:22:52;0.80;99.90
2825;DHT22;1420;51.324;12.344;2022-12-01T10:25:21;0.90;99.90
2825;DHT22;1420;51.324;12.344;2022-12-01T10:27:59;0.80;99.90
2825;DHT22;1420;51.324;12.344;2022-12-01T10:30:21;0.90;99.90
2825;DHT22;1420;51.324;12.344;2022-12-01T10:33:00;0.90;99.90
2825;DHT22;1420;51.324;12.344;2022-12-01T10:35:26;0.90;99.90
2825;DHT22;1420;51.324;12.344;2022-12-01T10:37:56;0.90;99.90
2825;DHT22;1420;51.324;12.344;2022-12-01T10:40:23;0.80;99.90
2825;DHT22;1420;51.324;12.344;2022-12-01T10:42:51;0.90;99.90
2825;DHT22;1420;51.324;12.344;2022-12-01T10:45:27;1.00;99.90
2825;DHT22;1420;51.324;12.344;2022-12-01T10:48:11;1.00;99.90
2825;DHT22;1420;51.324;12.344;2022-12-01T10:50:37;0.90;99.90
2825;DHT22;1420;51.324;12.344;2022-12-01T10:53:05;0.90;99.90
2825;DHT22;1420;51.324;12.344;2022-12-01T10:55:34;0.80;99.90
2825;DHT22;1420;51.324;12.344;2022-12-01T10:58:02;0.80;99.90
2825;DHT22;1420;51.324;12.344;2022-12-01T11:00:31;0.80;99.90
2825;DHT22;1420;51.324;12.344;2022-12-01T11:02:55;0.90;99.90
2825;DHT22;1420;51.324;12.344;2022-12-01T11:05:24;0.90;99.90
2825;DHT22;1420;51.324;12.344;2022-12-01T11:07:50;0.80;99.90
2825;DHT22;1420;51.324;12.344;2022-12-01T11:10:21;0.90;99.90
2825;DHT22;1420;51.324;12.344;2022-12-01T11:12:54;0.80;99.90
2825;DHT22;1420;51.324;12.344;2022-12-01T11:15:21;0.70;99.90
2825;DHT22;1420;51.324;12.344;2022-12-01T11:17:48;0.70;99.90
2825;DHT22;1420;51.324;12.344;2022-12-01T11:20:29;0.90;99.90
2825;DHT22;1420;51.324;12.344;2022-12-01T11:26:05;0.90;99.90
2825;DHT22;1420;51.324;12.344;2022-12-01T11:28:32;0.90;99.90
2825;DHT22;1420;51.324;12.344;2022-12-01T11:31:03;0.90;99.90
2825;DHT22;1420;51.324;12.344;2022-12-01T11:33:29;0.90;99.90
2825;DHT22;1420;51.324;12.344;2022-12-01T11:35:56;0.90;99.90
2825;DHT22;1420;51.324;12.344;2022-12-01T11:38:23;0.90;99.90
2825;DHT22;1420;51.324;12.344;2022-12-01T11:40:54;1.10;99.90
2825;DHT22;1420;51.324;12.344;2022-12-01T11:43:25;0.90;99.90
2825;DHT22;1420;51.324;12.344;2022-12-01T11:45:50;0.90;99.90
2825;DHT22;1420;51.324;12.344;2022-12-01T11:48:24;0.90;99.90
2825;DHT22;1420;51.324;12.344;2022-12-01T11:51:03;0.80;99.90
2825;DHT22;1420;51.324;12.344;2022-12-01T11:53:30;0.80;99.90
2825;DHT22;1420;51.324;12.344;2022-12-01T11:58:35;0.90;99.90
2825;DHT22;1420;51.324;12.344;2022-12-01T12:01:02;0.80;99.90
2825;DHT22;1420;51.324;12.344;2022-12-01T12:03:33;0.90;99.90
2825;DHT22;1420;51.324;12.344;2022-12-01T12:06:05;0.90;99.90
2825;DHT22;1420;51.324;12.344;2022-12-01T12:08:51;0.90;99.90
2825;DHT22;1420;51.324;12.344;2022-12-01T12:11:18;0.90;99.90
2825;DHT22;1420;51.324;12.344;2022-12-01T12:13:51;0.90;99.90
2825;DHT22;1420;51.324;12.344;2022-12-01T12:16:18;1.00;99.90
2825;DHT22;1420;51.324;12.344;2022-12-01T12:19:22;1.20;99.90
2825;DHT22;1420;51.324;12.344;2022-12-01T12:21:33;1.30;99.90
2825;DHT22;1420;51.324;12.344;2022-12-01T12:27:03;1.10;99.90
2825;DHT22;1420;51.324;12.344;2022-12-01T12:33:21;0.90;99.90
2825;DHT22;1420;51.324;12.344;2022-12-01T12:35:01;0.90;99.90
2825;DHT22;1420;51.324;12.344;2022-12-01T12:40:21;0.90;99.90
2825;DHT22;1420;51.324;12.344;2022-12-01T12:42:53;0.90;99.90
2825;DHT22;1420;51.324;12.344;2022-12-01T12:45:20;0.90;99.90
2825;DHT22;1420;51.324;12.344;2022-12-01T12:47:50;1.00;99.90
2825;DHT22;1420;51.324;12.344;2022-12-01T12:50:27;1.00;99.90
2825;DHT22;1420;51.324;12.344;2022-12-01T12:52:56;1.10;99.90
2825;DHT22;1420;51.324;12.344;2022-12-01T12:55:27;1.10;99.90
2825;DHT22;1420;51.324;12.344;2022-12-01T12:57:54;1.10;99.90
2825;DHT22;1420;51.324;12.344;2022-12-01T13:00:22;1.00;99.90
2825;DHT22;1420;51.324;12.344;2022-12-01T13:02:52;1.00;99.90
2825;DHT22;1420;51.324;12.344;2022-12-01T13:05:23;1.10;99.90
2825;DHT22;1420;51.324;12.344;2022-12-01T13:07:53;1.20;99.90
2825;DHT22;1420;51.324;12.344;2022-12-01T13:10:38;1.00;99.90
2825;DHT22;1420;51.324;12.344;2022-12-01T13:13:24;1.00;99.90
2825;DHT22;1420;51.324;12.344;2022-12-01T13:15:51;1.00;99.90
2825;DHT22;1420;51.324;12.344;2022-12-01T13:18:25;1.00;99.90
2825;DHT22;1420;51.324;12.344;2022-12-01T13:20:52;1.00;99.90
2825;DHT22;1420;51.324;12.344;2022-12-01T13:23:19;1.00;99.90
2825;DHT22;1420;51.324;12.344;2022-12-01T13:25:48;1.00;99.90
2825;DHT22;1420;51.324;12.344;2022-12-01T13:28:26;1.00;99.90
2825;DHT22;1420;51.324;12.344;2022-12-01T13:30:58;1.00;99.90
2825;DHT22;1420;51.324;12.344;2022-12-01T13:33:24;1.00;99.90
2825;DHT22;1420;51.324;12.344;2022-12-01T13:35:52;1.00;99.90
2825;DHT22;1420;51.324;12.344;2022-12-01T13:38:31;1.10;99.90
2825;DHT22;1420;51.324;12.344;2022-12-01T13:41:09;1.00;99.90
2825;DHT22;1420;51.324;12.344;2022-12-01T13:43:36;1.00;99.90
2825;DHT22;1420;51.324;12.344;2022-12-01T13:46:03;1.10;99.90
2825;DHT22;1420;51.324;12.344;2022-12-01T13:48:51;1.10;99.90
2825;DHT22;1420;51.324;12.344;2022-12-01T13:51:19;1.00;99.90
2825;DHT22;1420;51.324;12.344;2022-12-01T13:54:15;1.00;99.90
2825;DHT22;1420;51.324;12.344;2022-12-01T13:56:35;1.00;99.90
2825;DHT22;1420;51.324;12.344;2022-12-01T13:59:01;1.20;99.90
2825;DHT22;1420;51.324;12.344;2022-12-01T14:01:44;1.20;99.90
2825;DHT22;1420;51.324;12.344;2022-12-01T14:04:22;1.20;99.90
2825;DHT22;1420;51.324;12.344;2022-12-01T14:06:48;1.20;99.90
2825;DHT22;1420;51.324;12.344;2022-12-01T14:09:19;1.20;99.90
2825;DHT22;1420;51.324;12.344;2022-12-01T14:14:17;1.00;99.90
2825;DHT22;1420;51.324;12.344;2022-12-01T14:16:49;1.00;99.90
2825;DHT22;1420;51.324;12.344;2022-12-01T14:19:35;1.00;99.90
2825;DHT22;1420;51.324;12.344;2022-12-01T14:22:04;1.10;99.90
2825;DHT22;1420;51.324;12.344;2022-12-01T14:24:33;1.10;99.90
2825;DHT22;1420;51.324;12.344;2022-12-01T14:26:59;1.10;99.90
2825;DHT22;1420;51.324;12.344;2022-12-01T14:32:21;1.10;99.90
2825;DHT22;1420;51.324;12.344;2022-12-01T14:34:49;1.10;99.90
2825;DHT22;1420;51.324;12.344;2022-12-01T14:37:17;1.00;99.90
2825;DHT22;1420;51.324;12.344;2022-12-01T14:39:54;1.10;99.90
2825;DHT22;1420;51.324;12.344;2022-12-01T14:42:41;1.10;99.90
2825;DHT22;1420;51.324;12.344;2022-12-01T14:45:14;1.00;99.90
2825;DHT22;1420;51.324;12.344;2022-12-01T14:47:44;1.00;99.90
2825;DHT22;1420;51.324;12.344;2022-12-01T14:50:21;1.00;99.90
2825;DHT22;1420;51.324;12.344;2022-12-01T14:52:51;1.20;99.90
2825;DHT22;1420;51.324;12.344;2022-12-01T14:55:18;1.00;99.90
2825;DHT22;1420;51.324;12.344;2022-12-01T14:57:46;1.00;99.90
2825;DHT22;1420;51.324;12.344;2022-12-01T15:00:13;1.10;99.90
2825;DHT22;1420;51.324;12.344;2022-12-01T15:02:41;1.00;99.90
2825;DHT22;1420;51.324;12.344;2022-12-01T15:05:12;1.00;99.90
2825;DHT22;1420;51.324;12.344;2022-12-01T15:07:39;1.00;99.90
2825;DHT22;1420;51.324;12.344;2022-12-01T15:12:39;0.90;99.90
2825;DHT22;1420;51.324;12.344;2022-12-01T15:15:16;0.90;99.90
2825;DHT22;1420;51.324;12.344;2022-12-01T15:17:43;1.00;99.90
2825;DHT22;1420;51.324;12.344;2022-12-01T15:22:49;1.00;99.90
2825;DHT22;1420;51.324;12.344;2022-12-01T15:25:16;1.00;99.90
2825;DHT22;1420;51.324;12.344;2022-12-01T15:27:43;1.10;99.90
2825;DHT22;1420;51.324;12.344;2022-12-01T15:30:12;1.10;99.90
2825;DHT22;1420;51.324;12.344;2022-12-01T15:32:39;1.10;99.90
2825;DHT22;1420;51.324;12.344;2022-12-01T15:35:09;1.00;99.90
2825;DHT22;1420;51.324;12.344;2022-12-01T15:37:41;0.90;99.90
2825;DHT22;1420;51.324;12.344;2022-12-01T15:40:15;1.00;99.90
2825;DHT22;1420;51.324;12.344;2022-12-01T15:45:21;1.00;99.90
2825;DHT22;1420;51.324;12.344;2022-12-01T15:47:50;0.90;99.90
2825;DHT22;1420;51.324;12.344;2022-12-01T15:50:29;1.00;99.90
2825;DHT22;1420;51.324;12.344;2022-12-01T15:52:57;0.90;99.90
2825;DHT22;1420;51.324;12.344;2022-12-01T15:55:26;0.90;99.90
2825;DHT22;1420;51.324;12.344;2022-12-01T15:57:51;1.00;99.90
2825;DHT22;1420;51.324;12.344;2022-12-01T16:00:19;0.90;99.90
2825;DHT22;1420;51.324;12.344;2022-12-01T16:02:51;1.00;99.90
2825;DHT22;1420;51.324;12.344;2022-12-01T16:05:19;0.90;99.90
2825;DHT22;1420;51.324;12.344;2022-12-01T16:07:45;0.90;99.90
2825;DHT22;1420;51.324;12.344;2022-12-01T16:10:24;1.00;99.90
2825;DHT22;1420;51.324;12.344;2022-12-01T16:12:50;1.00;99.90
2825;DHT22;1420;51.324;12.344;2022-12-01T16:15:18;0.90;99.90
2825;DHT22;1420;51.324;12.344;2022-12-01T16:17:47;0.80;99.90
2825;DHT22;1420;51.324;12.344;2022-12-01T16:20:15;0.90;99.90
2825;DHT22;1420;51.324;12.344;2022-12-01T16:22:46;0.80;99.90
2825;DHT22;1420;51.324;12.344;2022-12-01T16:25:20;0.90;99.90
2825;DHT22;1420;51.324;12.344;2022-12-01T16:27:48;0.90;99.90
2825;DHT22;1420;51.324;12.344;2022-12-01T16:30:20;0.90;99.90
2825;DHT22;1420;51.324;12.344;2022-12-01T16:32:47;0.90;99.90
2825;DHT22;1420;51.324;12.344;2022-12-01T16:35:21;0.80;99.90
2825;DHT22;1420;51.324;12.344;2022-12-01T16:37:48;0.70;99.90
2825;DHT22;1420;51.324;12.344;2022-12-01T16:40:17;0.90;99.90
2825;DHT22;1420;51.324;12.344;2022-12-01T16:42:44;0.90;99.90
2825;DHT22;1420;51.324;12.344;2022-12-01T16:45:11;1.00;99.90
2825;DHT22;1420;51.324;12.344;2022-12-01T16:47:41;0.90;99.90
2825;DHT22;1420;51.324;12.344;2022-12-01T16:50:12;0.90;99.90
2825;DHT22;1420;51.324;12.344;2022-12-01T16:52:37;1.00;99.90
2825;DHT22;1420;51.324;12.344;2022-12-01T16:55:27;0.90;99.90